Time;durP1;ratioP1;P1;durP2;ratioP2;P2;SDS_P1;SDS_P2;PMS_P1;PMS_P2;Temp;Humidity;BMP_temperature;BMP_pressure;BME280_temperature;BME280_humidity;BME280_pressure;Samples;Min_cycle;Max_cycle;Signal;HPM_P1;HPM_P2
2022/12/20 00:00:04;;;;;;;1.05;0.50;;;-0.40;99.90;;;;;;20453876;23;20113;-55
2022/12/20 00:10:07;;;;;;;1.83;0.60;;;-0.30;99.90;;;;;;20437705;23;20411;-39
2022/12/20 00:20:09;;;;;;;0.80;0.40;;;-0.20;99.90;;;;;;20415929;23;20494;-43
2022/12/20 00:30:11;;;;;;;0.60;0.40;;;-0.20;99.90;;;;;;20453145;23;20064;-54
2022/12/20 00:40:13;;;;;;;1.50;0.40;;;-0.40;99.90;;;;;;20454019;23;20064;-43
2022/12/20 00:50:14;;;;;;;1.25;0.50;;;-0.40;99.90;;;;;;20453829;23;20120;-52
2022/12/20 01:00:17;;;;;;;1.50;0.63;;;-0.40;99.90;;;;;;20454415;23;20060;-41
2022/12/20 01:10:18;;;;;;;0.80;0.45;;;-0.40;99.90;;;;;;20400255;23;20093;-41
2022/12/20 01:20:20;;;;;;;1.23;0.38;;;-0.20;99.90;;;;;;20452008;23;20057;-56
2022/12/20 01:30:22;;;;;;;0.47;0.30;;;-0.20;99.90;;;;;;20450161;23;20060;-41
2022/12/20 01:40:23;;;;;;;0.73;0.30;;;0.00;99.90;;;;;;20437406;23;20085;-45
2022/12/20 01:50:32;;;;;;;1.35;0.40;;;-0.10;99.90;;;;;;20427528;23;20554;31
2022/12/20 02:00:34;;;;;;;0.47;0.20;;;-0.20;99.90;;;;;;20344872;23;20095;-54
2022/12/20 02:10:51;;;;;;;1.15;0.30;;;-0.10;99.90;;;;;;20428728;23;20061;-41
2022/12/20 02:20:58;;;;;;;0.90;0.30;;;0.00;99.90;;;;;;20432001;23;20060;-53
2022/12/20 02:31:04;;;;;;;0.88;0.40;;;-0.10;99.90;;;;;;20446559;23;20567;-42
2022/12/20 02:41:13;;;;;;;1.08;0.45;;;0.00;99.90;;;;;;20372103;23;20110;-53
2022/12/20 02:51:16;;;;;;;1.08;0.30;;;0.00;99.90;;;;;;20359072;23;20056;-41
2022/12/20 03:01:53;;;;;;;1.05;0.40;;;0.00;99.90;;;;;;20359588;23;20057;-45
2022/12/20 03:12:07;;;;;;;0.50;0.22;;;0.00;99.90;;;;;;20305227;23;20128;-63
2022/12/20 03:22:11;;;;;;;0.52;0.20;;;0.50;99.90;;;;;;20333363;23;1320461;-42
2022/12/20 03:32:13;;;;;;;1.42;0.28;;;1.10;99.90;;;;;;20459364;23;20105;-54
2022/12/20 03:42:18;;;;;;;0.22;0.17;;;1.10;99.90;;;;;;20425112;23;20121;-42
2022/12/20 03:52:20;;;;;;;0.32;0.20;;;0.90;99.90;;;;;;20455092;23;20113;-54
2022/12/20 04:02:23;;;;;;;0.63;0.20;;;1.10;99.90;;;;;;20370452;23;20049;-46
2022/12/20 04:12:25;;;;;;;1.17;0.20;;;1.20;99.90;;;;;;20325269;23;20057;-44
2022/12/20 04:22:27;;;;;;;0.50;0.20;;;1.40;99.90;;;;;;20363421;23;20065;-54
2022/12/20 04:32:37;;;;;;;0.20;0.10;;;1.90;99.90;;;;;;20458108;23;20068;-40
2022/12/20 04:42:39;;;;;;;0.90;0.40;;;2.70;99.90;;;;;;20376364;23;20057;-52
2022/12/20 05:03:24;;;;;;;0.20;0.20;;;2.00;99.90;;;;;;20309858;23;20200;-55
2022/12/20 05:13:26;;;;;;;0.22;0.10;;;2.10;99.90;;;;;;20348174;23;20061;-40
2022/12/20 05:33:54;;;;;;;0.25;0.10;;;2.00;99.90;;;;;;20296217;23;20090;-55
2022/12/20 05:43:57;;;;;;;0.60;0.20;;;2.60;99.90;;;;;;20312761;23;20068;-42
2022/12/20 05:54:00;;;;;;;0.20;0.10;;;2.20;99.90;;;;;;20332955;23;20061;-54
2022/12/20 06:04:19;;;;;;;0.50;0.28;;;1.80;99.90;;;;;;20313073;23;20113;-43
2022/12/20 06:14:22;;;;;;;1.17;0.20;;;1.40;99.90;;;;;;20311478;23;20053;-54
2022/12/20 06:24:26;;;;;;;0.40;0.17;;;1.30;99.90;;;;;;20369836;23;20117;-41
2022/12/20 06:34:28;;;;;;;0.45;0.20;;;1.30;99.90;;;;;;20280421;23;20160;-42
2022/12/20 06:44:30;;;;;;;0.30;0.10;;;1.30;99.90;;;;;;20367786;23;20113;-55
2022/12/20 06:54:32;;;;;;;0.20;0.10;;;1.20;99.90;;;;;;20391212;23;20056;-41
2022/12/20 07:04:34;;;;;;;0.30;0.10;;;1.20;99.90;;;;;;20352432;23;20681;-56
2022/12/20 07:14:39;;;;;;;0.20;0.10;;;1.60;99.90;;;;;;20361644;23;20086;-48
2022/12/20 07:24:42;;;;;;;1.02;0.20;;;1.90;99.90;;;;;;20339353;23;20056;-40
2022/12/20 07:34:43;;;;;;;0.32;0.17;;;2.00;99.90;;;;;;20351956;23;20415;-53
2022/12/20 07:44:46;;;;;;;0.35;0.10;;;2.70;99.90;;;;;;20338476;23;20495;-42
2022/12/20 07:54:52;;;;;;;0.38;0.10;;;2.70;99.90;;;;;;20362089;23;20148;-55
2022/12/20 08:04:54;;;;;;;0.40;0.20;;;2.70;99.90;;;;;;20334416;23;20041;-46
2022/12/20 08:14:57;;;;;;;0.28;0.10;;;3.20;99.90;;;;;;20311016;23;20054;-41
2022/12/20 08:24:58;;;;;;;0.20;0.10;;;3.40;99.90;;;;;;20347033;23;20119;-52
2022/12/20 08:35:00;;;;;;;0.63;0.30;;;3.90;99.90;;;;;;20340657;23;20145;-42
2022/12/20 08:45:02;;;;;;;0.65;0.22;;;4.20;99.90;;;;;;20321561;23;20061;-54
2022/12/20 08:55:04;;;;;;;0.70;0.40;;;4.70;99.90;;;;;;20319961;23;20045;-42
2022/12/20 09:05:06;;;;;;;0.65;0.30;;;4.90;99.90;;;;;;20294470;23;20054;-54
2022/12/20 09:15:09;;;;;;;0.38;0.20;;;5.30;99.90;;;;;;20350734;23;20057;-54
2022/12/20 09:25:11;;;;;;;0.40;0.20;;;5.60;99.90;;;;;;20335502;23;20061;-42
2022/12/20 09:35:13;;;;;;;1.00;0.20;;;6.00;99.90;;;;;;20335924;23;20109;-54
2022/12/20 09:45:26;;;;;;;0.85;0.10;;;6.80;99.90;;;;;;20346931;23;20049;-42
2022/12/20 09:55:47;;;;;;;0.30;0.10;;;7.60;99.90;;;;;;20261491;23;20090;-43
2022/12/20 10:05:53;;;;;;;0.20;0.17;;;7.00;99.90;;;;;;20356995;23;20504;-55
2022/12/20 10:16:20;;;;;;;0.10;0.10;;;7.00;99.90;;;;;;20381132;23;20093;-47
2022/12/20 10:26:22;;;;;;;0.68;0.20;;;7.20;99.90;;;;;;20428093;23;20064;-53
2022/12/20 10:36:27;;;;;;;0.22;0.20;;;7.80;99.90;;;;;;20395336;23;20094;-42
2022/12/20 10:46:43;;;;;;;1.10;0.17;;;8.10;99.90;;;;;;20388217;23;20056;-42
2022/12/20 10:56:57;;;;;;;0.50;0.20;;;8.10;99.90;;;;;;20384028;23;20078;-55
2022/12/20 11:07:01;;;;;;;0.68;0.30;;;7.80;99.90;;;;;;20356354;23;20122;-51
2022/12/20 11:17:25;;;;;;;0.20;0.10;;;7.60;99.90;;;;;;20453360;23;20052;-53
2022/12/20 11:27:43;;;;;;;0.10;0.00;;;7.60;99.90;;;;;;20477328;23;20087;-54
2022/12/20 11:38:22;;;;;;;0.70;0.15;;;6.90;99.90;;;;;;20406193;23;20052;-49
2022/12/20 11:48:48;;;;;;;0.30;0.20;;;6.90;99.90;;;;;;20318097;29;20056;-56
2022/12/20 11:58:56;;;;;;;0.30;0.20;;;7.20;99.90;;;;;;20339627;23;20113;-43
2022/12/20 12:09:10;;;;;;;0.73;0.30;;;7.50;99.90;;;;;;20314898;23;20060;-53
2022/12/20 12:19:13;;;;;;;0.25;0.15;;;7.10;99.90;;;;;;20173886;29;20445;-58
2022/12/20 12:29:16;;;;;;;1.00;0.25;;;7.30;99.90;;;;;;20195898;29;20108;-56
2022/12/20 12:39:55;;;;;;;1.00;0.30;;;7.40;99.90;;;;;;20177756;29;20048;-58
2022/12/20 12:49:57;;;;;;;0.45;0.30;;;6.90;99.90;;;;;;20177974;29;20037;-57
2022/12/20 12:59:58;;;;;;;0.80;0.20;;;6.60;99.90;;;;;;20190651;29;20041;-57
2022/12/20 13:10:28;;;;;;;0.30;0.20;;;6.80;99.90;;;;;;20190893;29;20121;-57
2022/12/20 13:20:31;;;;;;;0.57;0.20;;;6.80;99.90;;;;;;20189797;29;20045;-57
2022/12/20 13:30:33;;;;;;;0.77;0.40;;;7.00;99.90;;;;;;20188763;29;20045;-57
2022/12/20 13:40:42;;;;;;;0.63;0.30;;;7.10;99.90;;;;;;20191009;29;20077;-56
2022/12/20 13:50:54;;;;;;;1.45;0.20;;;6.60;99.90;;;;;;20189647;29;20067;-63
2022/12/20 14:01:10;;;;;;;0.40;0.30;;;6.70;99.90;;;;;;20185920;29;20052;-58
2022/12/20 14:11:26;;;;;;;0.20;0.20;;;6.60;99.90;;;;;;20184378;29;20057;-63
2022/12/20 14:21:29;;;;;;;0.22;0.20;;;6.60;99.90;;;;;;20186302;29;20060;-58
2022/12/20 14:31:42;;;;;;;0.60;0.30;;;6.30;99.90;;;;;;20183789;29;20108;-57
2022/12/20 14:41:44;;;;;;;1.00;0.38;;;6.30;99.90;;;;;;20187963;29;20062;-58
2022/12/20 14:51:46;;;;;;;0.80;0.17;;;6.50;99.90;;;;;;20187495;29;20052;-57
2022/12/20 15:01:48;;;;;;;0.73;0.20;;;6.50;99.90;;;;;;20166879;29;20507;-63
2022/12/20 15:11:50;;;;;;;1.05;0.22;;;6.50;99.90;;;;;;20170646;29;20053;-57
2022/12/20 15:21:52;;;;;;;0.20;0.17;;;6.50;99.90;;;;;;20200142;29;20041;-56
2022/12/20 15:32:06;;;;;;;1.50;0.20;;;6.50;99.90;;;;;;20197262;29;20057;-57
2022/12/20 15:42:16;;;;;;;0.65;0.20;;;6.30;99.90;;;;;;20194623;29;20085;-63
2022/12/20 15:52:22;;;;;;;0.55;0.35;;;6.00;99.90;;;;;;20179958;29;20089;-57
2022/12/20 16:02:27;;;;;;;1.77;0.20;;;5.40;99.90;;;;;;20195500;29;20041;-59
2022/12/20 16:12:33;;;;;;;1.80;0.40;;;5.00;99.90;;;;;;20194855;29;20048;-57
2022/12/20 16:22:35;;;;;;;0.60;0.30;;;5.60;99.90;;;;;;20195943;29;20081;-57
2022/12/20 16:32:36;;;;;;;0.38;0.30;;;5.10;99.90;;;;;;20192257;29;20097;-59
2022/12/20 16:42:38;;;;;;;0.55;0.20;;;5.60;99.90;;;;;;20195153;29;20503;-57
2022/12/20 16:52:40;;;;;;;0.32;0.20;;;4.90;99.90;;;;;;20194041;29;20114;-58
2022/12/20 17:02:42;;;;;;;1.15;0.30;;;5.70;99.90;;;;;;20190883;29;20150;-57
2022/12/20 17:12:44;;;;;;;0.88;0.30;;;5.80;99.90;;;;;;20175214;29;20049;-57
2022/12/20 17:22:50;;;;;;;0.40;0.20;;;6.00;99.90;;;;;;20189911;29;20132;-57
2022/12/20 17:32:53;;;;;;;0.90;0.30;;;5.80;99.90;;;;;;20187650;29;20105;-59
2022/12/20 17:42:55;;;;;;;0.75;0.20;;;5.60;99.90;;;;;;20191613;29;20059;-57
2022/12/20 17:52:56;;;;;;;1.10;0.30;;;6.00;99.90;;;;;;20173550;29;20049;-57
2022/12/20 18:02:58;;;;;;;0.88;0.25;;;6.20;99.90;;;;;;20186305;29;20045;-58
2022/12/20 18:12:59;;;;;;;0.68;0.35;;;5.90;99.90;;;;;;20188721;29;20096;-63
2022/12/20 18:23:01;;;;;;;1.52;0.30;;;6.10;99.90;;;;;;20170710;29;20056;-56
2022/12/20 18:33:03;;;;;;;0.20;0.20;;;6.00;99.90;;;;;;20185357;29;20044;-58
2022/12/20 18:43:04;;;;;;;0.20;0.10;;;5.80;99.90;;;;;;20185694;29;20049;-63
2022/12/20 18:53:06;;;;;;;0.15;0.10;;;5.90;99.90;;;;;;20168990;29;20130;-59
2022/12/20 19:03:08;;;;;;;0.75;0.20;;;5.70;99.90;;;;;;20183401;29;20048;-58
2022/12/20 19:13:10;;;;;;;0.55;0.20;;;6.00;99.90;;;;;;20183653;29;20112;-63
2022/12/20 19:23:12;;;;;;;1.52;0.20;;;6.10;99.90;;;;;;20185935;29;20045;-55
2022/12/20 19:33:14;;;;;;;0.35;0.17;;;6.40;99.90;;;;;;20182179;29;20432;-57
2022/12/20 19:43:16;;;;;;;0.85;0.20;;;6.30;99.90;;;;;;20168599;29;20057;-58
2022/12/20 19:53:17;;;;;;;1.40;0.30;;;6.40;99.90;;;;;;20184475;29;20425;-63
2022/12/20 20:03:20;;;;;;;0.60;0.25;;;6.40;99.90;;;;;;20189018;29;20045;-60
2022/12/20 20:13:22;;;;;;;0.20;0.15;;;6.50;99.90;;;;;;20196233;29;20073;-58
2022/12/20 20:23:25;;;;;;;0.20;0.10;;;6.50;99.90;;;;;;20177707;29;20097;-58
2022/12/20 20:33:29;;;;;;;0.60;0.10;;;6.50;99.90;;;;;;20192866;29;20453;-64
2022/12/20 20:43:35;;;;;;;0.40;0.10;;;6.60;99.90;;;;;;20193016;29;20465;-57
2022/12/20 20:53:37;;;;;;;0.80;0.10;;;6.80;99.90;;;;;;20178045;29;20089;-59
2022/12/20 21:03:39;;;;;;;0.00;0.00;;;6.80;99.90;;;;;;20191094;29;20105;-59
2022/12/20 21:13:40;;;;;;;0.00;0.00;;;6.70;99.90;;;;;;20192621;29;20475;-59
2022/12/20 21:23:46;;;;;;;0.00;0.00;;;6.70;99.90;;;;;;20174601;29;20048;-58
2022/12/20 21:33:48;;;;;;;0.10;0.00;;;6.70;99.90;;;;;;20171431;29;20045;-58
2022/12/20 21:43:53;;;;;;;0.00;0.00;;;6.50;99.90;;;;;;20171589;29;20074;-57
2022/12/20 21:53:58;;;;;;;0.38;0.10;;;6.30;99.90;;;;;;20188147;29;20071;-58
2022/12/20 22:04:02;;;;;;;0.00;0.00;;;6.20;99.90;;;;;;20186331;29;20093;-57
2022/12/20 22:14:05;;;;;;;0.00;0.00;;;6.30;99.90;;;;;;20182898;29;20515;-58
2022/12/20 22:24:08;;;;;;;0.00;0.00;;;6.30;99.90;;;;;;20186712;29;20050;-58
2022/12/20 22:34:10;;;;;;;0.00;0.00;;;6.40;99.90;;;;;;20167105;29;20061;-57
2022/12/20 22:44:12;;;;;;;0.10;0.00;;;6.70;99.90;;;;;;20187029;29;20048;-59
2022/12/20 22:54:14;;;;;;;0.00;0.00;;;6.70;99.90;;;;;;20186114;29;20097;-63
2022/12/20 23:04:16;;;;;;;1.17;0.00;;;6.50;99.90;;;;;;20183452;29;20041;-58
2022/12/20 23:24:41;;;;;;;0.00;0.00;;;7.10;99.90;;;;;;20106637;29;20057;-63
2022/12/20 23:34:42;;;;;;;0.00;0.00;;;6.90;99.90;;;;;;20111418;29;20385;-57
2022/12/20 23:44:44;;;;;;;0.00;0.00;;;6.80;99.90;;;;;;20120880;29;20041;-56
2022/12/20 23:54:46;;;;;;;0.13;0.00;;;7.10;99.90;;;;;;20122016;29;20046;-57
